createdAt,value
2016-08-07T00:00:02.359Z,1024.11
2016-08-07T00:00:12.359Z,1024.09
2016-08-07T00:00:22.352Z,1024.12
2016-08-07T00:00:32.344Z,1024.1
2016-08-07T00:00:42.340Z,1024.09
2016-08-07T00:00:52.334Z,1024.08
2016-08-07T00:01:02.328Z,1024.11
2016-08-07T00:01:12.324Z,1024.1
2016-08-07T00:01:22.318Z,1024.1
2016-08-07T00:01:32.314Z,1024.07
2016-08-07T00:01:42.320Z,1024.08
2016-08-07T00:01:52.304Z,1024.12
2016-08-07T00:02:02.298Z,1024.06
2016-08-07T00:02:12.296Z,1024.08
2016-08-07T00:02:22.291Z,1024.08
2016-08-07T00:02:32.285Z,1024.09
2016-08-07T00:02:42.280Z,1024.09
2016-08-07T00:02:52.278Z,1024.08
2016-08-07T00:03:02.272Z,1024.11
2016-08-07T00:03:12.265Z,1024.09
2016-08-07T00:03:22.261Z,1024.08
2016-08-07T00:03:32.257Z,1024.1
2016-08-07T00:03:42.249Z,1024.06
2016-08-07T00:03:52.245Z,1024.12
2016-08-07T00:04:02.239Z,1024.08
2016-08-07T00:04:12.239Z,1024.06
2016-08-07T00:04:22.230Z,1024.07
2016-08-07T00:04:32.228Z,1024.1
2016-08-07T00:04:42.221Z,1024.05
2016-08-07T00:04:52.214Z,1024.05
2016-08-07T00:05:02.212Z,1024.07
2016-08-07T00:05:12.208Z,1024.08
2016-08-07T00:05:22.200Z,1024.07
2016-08-07T00:05:32.196Z,1024.08
2016-08-07T00:05:42.191Z,1024.11
2016-08-07T00:05:52.187Z,1024.08
2016-08-07T00:06:02.183Z,1024.07
2016-08-07T00:06:12.177Z,1024.08
2016-08-07T00:06:22.172Z,1024.06
2016-08-07T00:06:32.171Z,1024.06
2016-08-07T00:06:42.166Z,1024.11
2016-08-07T00:06:52.156Z,1024.09
2016-08-07T00:07:02.153Z,1024.09
2016-08-07T00:07:12.146Z,1024.09
2016-08-07T00:07:22.143Z,1024.1
2016-08-07T00:07:32.138Z,1024.07
2016-08-07T00:07:42.132Z,1024.11
2016-08-07T00:07:52.128Z,1024.1
2016-08-07T00:08:02.124Z,1024.1
2016-08-07T00:08:12.119Z,1024.13
2016-08-07T00:08:22.115Z,1024.13
2016-08-07T00:08:32.108Z,1024.09
2016-08-07T00:08:42.104Z,1024.09
2016-08-07T00:08:52.100Z,1024.08
2016-08-07T00:09:02.095Z,1024.05
2016-08-07T00:09:12.090Z,1024.07
2016-08-07T00:09:22.083Z,1024.07
2016-08-07T00:09:32.080Z,1024.14
2016-08-07T00:09:42.076Z,1024.09
2016-08-07T00:09:52.070Z,1024.07
2016-08-07T00:10:02.064Z,1024.06
2016-08-07T00:10:12.060Z,1024.08
2016-08-07T00:10:22.058Z,1024.05
2016-08-07T00:10:32.050Z,1024.06
2016-08-07T00:10:42.046Z,1024.07
2016-08-07T00:10:52.042Z,1024.03
2016-08-07T00:11:02.042Z,1024.01
2016-08-07T00:11:12.031Z,1024.03
2016-08-07T00:11:22.024Z,1024.08
2016-08-07T00:11:32.021Z,1024.05
2016-08-07T00:11:42.015Z,1024.05
2016-08-07T00:11:52.010Z,1024.01
2016-08-07T00:12:02.011Z,1024.05
2016-08-07T00:12:12.001Z,1024.06
2016-08-07T00:12:21.997Z,1024.05
2016-08-07T00:12:31.989Z,1024.04
2016-08-07T00:12:41.988Z,1024.02
2016-08-07T00:12:51.982Z,1024.02
2016-08-07T00:13:01.977Z,1024.03
2016-08-07T00:13:11.970Z,1024.05
2016-08-07T00:13:21.972Z,1024.08
2016-08-07T00:13:31.966Z,1024.08
2016-08-07T00:13:41.958Z,1024.09
2016-08-07T00:13:51.966Z,1024.06
2016-08-07T00:14:01.947Z,1024.05
2016-08-07T00:14:11.942Z,1024.04
2016-08-07T00:14:21.938Z,1024.05
2016-08-07T00:14:31.932Z,1024.04
2016-08-07T00:14:41.927Z,1024.02
2016-08-07T00:14:51.936Z,1024.03
2016-08-07T00:15:01.919Z,1023.97
2016-08-07T00:15:11.914Z,1024.04
2016-08-07T00:15:21.906Z,1023.97
2016-08-07T00:15:31.903Z,1023.96
2016-08-07T00:15:41.898Z,1024.02
2016-08-07T00:15:51.891Z,1023.97
2016-08-07T00:16:01.887Z,1023.97
2016-08-07T00:16:11.882Z,1023.98
2016-08-07T00:16:21.876Z,1023.99
2016-08-07T00:16:31.873Z,1024.01
2016-08-07T00:16:41.866Z,1023.99
2016-08-07T00:16:51.864Z,1023.97
2016-08-07T00:17:01.861Z,1024
2016-08-07T00:17:11.853Z,1024.01
2016-08-07T00:17:21.851Z,1023.94
2016-08-07T00:17:31.842Z,1023.96
2016-08-07T00:17:41.836Z,1024
2016-08-07T00:17:51.834Z,1024.01
2016-08-07T00:18:03.284Z,1023.99
2016-08-07T00:18:11.825Z,1024
2016-08-07T00:18:21.818Z,1023.97
2016-08-07T00:18:31.815Z,1023.94
2016-08-07T00:18:42.539Z,1023.99
2016-08-07T00:18:51.804Z,1024
2016-08-07T00:19:01.798Z,1024.01
2016-08-07T00:19:11.795Z,1024.01
2016-08-07T00:19:21.787Z,1024
2016-08-07T00:19:31.783Z,1024.01
2016-08-07T00:19:41.780Z,1024.02
2016-08-07T00:19:51.774Z,1023.99
2016-08-07T00:20:01.771Z,1023.98
2016-08-07T00:20:11.763Z,1023.93
2016-08-07T00:20:21.761Z,1023.96
2016-08-07T00:20:31.756Z,1023.93
2016-08-07T00:20:41.750Z,1024
2016-08-07T00:20:51.746Z,1023.93
2016-08-07T00:21:01.741Z,1023.98
2016-08-07T00:21:11.735Z,1023.98
2016-08-07T00:21:21.730Z,1023.97
2016-08-07T00:21:31.723Z,1023.97
2016-08-07T00:21:41.718Z,1023.98
2016-08-07T00:21:52.450Z,1023.95
2016-08-07T00:22:01.722Z,1023.96
2016-08-07T00:22:11.705Z,1023.98
2016-08-07T00:22:21.701Z,1023.97
2016-08-07T00:22:31.695Z,1023.99
2016-08-07T00:22:41.691Z,1023.99
2016-08-07T00:22:51.686Z,1023.95
2016-08-07T00:23:01.681Z,1023.97
2016-08-07T00:23:11.676Z,1023.93
2016-08-07T00:23:21.671Z,1024
2016-08-07T00:23:31.666Z,1023.98
2016-08-07T00:23:41.661Z,1023.97
2016-08-07T00:23:51.654Z,1023.94
2016-08-07T00:24:01.653Z,1024
2016-08-07T00:24:11.649Z,1023.91
2016-08-07T00:24:21.641Z,1023.99
2016-08-07T00:24:31.638Z,1023.99
2016-08-07T00:24:41.629Z,1023.95
2016-08-07T00:24:51.629Z,1023.92
2016-08-07T00:25:01.623Z,1024
2016-08-07T00:25:11.621Z,1023.97
2016-08-07T00:25:22.345Z,1023.93
2016-08-07T00:25:31.609Z,1023.94
2016-08-07T00:25:41.601Z,1023.94
2016-08-07T00:25:51.598Z,1023.96
2016-08-07T00:26:01.593Z,1023.95
2016-08-07T00:26:11.588Z,1023.94
2016-08-07T00:26:21.583Z,1023.93
2016-08-07T00:26:31.576Z,1023.95
2016-08-07T00:26:41.571Z,1023.95
2016-08-07T00:26:51.567Z,1023.93
2016-08-07T00:27:01.562Z,1023.98
2016-08-07T00:27:11.558Z,1023.96
2016-08-07T00:27:21.553Z,1023.95
2016-08-07T00:27:31.549Z,1023.95
2016-08-07T00:27:41.550Z,1023.99
2016-08-07T00:27:51.537Z,1023.95
2016-08-07T00:28:01.533Z,1023.96
2016-08-07T00:28:11.528Z,1023.94
2016-08-07T00:28:21.522Z,1023.95
2016-08-07T00:28:31.519Z,1023.97
2016-08-07T00:28:41.513Z,1023.98
2016-08-07T00:28:51.509Z,1023.95
2016-08-07T00:29:01.505Z,1023.98
2016-08-07T00:29:11.496Z,1023.93
2016-08-07T00:29:21.494Z,1023.97
2016-08-07T00:29:31.490Z,1023.97
2016-08-07T00:29:41.483Z,1023.95
2016-08-07T00:29:51.477Z,1023.92
2016-08-07T00:30:01.475Z,1023.96
2016-08-07T00:30:11.468Z,1023.97
2016-08-07T00:30:21.464Z,1023.92
2016-08-07T00:30:31.460Z,1023.93
2016-08-07T00:30:41.455Z,1023.97
2016-08-07T00:30:51.450Z,1023.95
2016-08-07T00:31:02.175Z,1023.92
2016-08-07T00:31:11.447Z,1023.95
2016-08-07T00:31:21.435Z,1023.95
2016-08-07T00:31:31.428Z,1023.96
2016-08-07T00:31:41.424Z,1023.97
2016-08-07T00:31:51.420Z,1023.95
2016-08-07T00:32:01.417Z,1023.94
2016-08-07T00:32:11.410Z,1023.97
2016-08-07T00:32:21.404Z,1023.93
2016-08-07T00:32:31.409Z,1023.92
2016-08-07T00:32:41.396Z,1023.9
2016-08-07T00:32:51.389Z,1023.93
2016-08-07T00:33:01.385Z,1023.92
2016-08-07T00:33:11.379Z,1023.93
2016-08-07T00:33:21.376Z,1023.91
2016-08-07T00:33:31.371Z,1023.89
2016-08-07T00:33:41.363Z,1023.87
2016-08-07T00:33:51.361Z,1023.89
2016-08-07T00:34:01.355Z,1023.91
2016-08-07T00:34:11.350Z,1023.87
2016-08-07T00:34:21.344Z,1023.87
2016-08-07T00:34:31.339Z,1023.87
2016-08-07T00:34:41.335Z,1023.91
2016-08-07T00:34:51.330Z,1023.88
2016-08-07T00:35:01.325Z,1023.87
2016-08-07T00:35:11.320Z,1023.88
2016-08-07T00:35:21.314Z,1023.88
2016-08-07T00:35:31.312Z,1023.91
2016-08-07T00:35:41.308Z,1023.86
2016-08-07T00:35:51.313Z,1023.89
2016-08-07T00:36:01.296Z,1023.88
2016-08-07T00:36:11.294Z,1023.85
2016-08-07T00:36:21.284Z,1023.84
2016-08-07T00:36:31.283Z,1023.88
2016-08-07T00:36:41.276Z,1023.87
2016-08-07T00:36:51.271Z,1023.84
2016-08-07T00:37:01.267Z,1023.8
2016-08-07T00:37:11.259Z,1023.82
2016-08-07T00:37:21.260Z,1023.83
2016-08-07T00:37:31.251Z,1023.84
2016-08-07T00:37:41.246Z,1023.79
2016-08-07T00:37:51.242Z,1023.84
2016-08-07T00:38:01.238Z,1023.86
2016-08-07T00:38:11.235Z,1023.85
2016-08-07T00:38:21.229Z,1023.82
2016-08-07T00:38:31.222Z,1023.8
2016-08-07T00:38:41.218Z,1023.81
2016-08-07T00:38:51.214Z,1023.84
2016-08-07T00:39:01.210Z,1023.84
2016-08-07T00:39:11.201Z,1023.84
2016-08-07T00:39:21.197Z,1023.87
2016-08-07T00:39:31.193Z,1023.88
2016-08-07T00:39:41.191Z,1023.86
2016-08-07T00:39:51.183Z,1023.88
2016-08-07T00:40:01.179Z,1023.88
2016-08-07T00:40:11.176Z,1023.92
2016-08-07T00:40:21.167Z,1023.92
2016-08-07T00:40:31.165Z,1023.87
2016-08-07T00:40:41.158Z,1023.89
2016-08-07T00:40:51.153Z,1023.87
2016-08-07T00:41:01.150Z,1023.87
2016-08-07T00:41:11.144Z,1023.88
2016-08-07T00:41:21.138Z,1023.9
2016-08-07T00:41:31.134Z,1023.91
2016-08-07T00:41:41.129Z,1023.96
2016-08-07T00:41:51.122Z,1023.88
2016-08-07T00:42:01.117Z,1023.91
2016-08-07T00:42:11.114Z,1023.89
2016-08-07T00:42:21.110Z,1023.87
2016-08-07T00:42:31.107Z,1023.86
2016-08-07T00:42:41.099Z,1023.85
2016-08-07T00:42:51.095Z,1023.88
2016-08-07T00:43:01.090Z,1023.85
2016-08-07T00:43:11.171Z,1023.87
2016-08-07T00:43:21.080Z,1023.87
2016-08-07T00:43:31.074Z,1023.85
2016-08-07T00:43:41.072Z,1023.87
2016-08-07T00:43:51.794Z,1023.83
2016-08-07T00:44:01.062Z,1023.88
2016-08-07T00:44:11.057Z,1023.81
2016-08-07T00:44:21.049Z,1023.8
2016-08-07T00:44:31.051Z,1023.83
2016-08-07T00:44:41.040Z,1023.84
2016-08-07T00:44:51.037Z,1023.81
2016-08-07T00:45:01.029Z,1023.87
2016-08-07T00:45:11.200Z,1023.89
2016-08-07T00:45:21.021Z,1023.81
2016-08-07T00:45:31.018Z,1023.81
2016-08-07T00:45:41.010Z,1023.84
2016-08-07T00:45:51.012Z,1023.83
2016-08-07T00:46:03.430Z,1023.8
2016-08-07T00:46:11.019Z,1023.81
2016-08-07T00:46:20.990Z,1023.82
2016-08-07T00:46:30.984Z,1023.83
2016-08-07T00:46:40.981Z,1023.83
2016-08-07T00:46:50.978Z,1023.79
2016-08-07T00:47:00.978Z,1023.83
2016-08-07T00:47:10.965Z,1023.83
2016-08-07T00:47:20.960Z,1023.82
2016-08-07T00:47:30.956Z,1023.85
2016-08-07T00:47:40.952Z,1023.8
2016-08-07T00:47:50.948Z,1023.8
2016-08-07T00:48:00.993Z,1023.81
2016-08-07T00:48:10.940Z,1023.79
2016-08-07T00:48:20.933Z,1023.83
2016-08-07T00:48:30.928Z,1023.79
2016-08-07T00:48:40.921Z,1023.77
2016-08-07T00:48:50.916Z,1023.75
2016-08-07T00:49:01.120Z,1023.8
2016-08-07T00:49:10.907Z,1023.81
2016-08-07T00:49:20.903Z,1023.8
2016-08-07T00:49:30.898Z,1023.78
2016-08-07T00:49:40.893Z,1023.8
2016-08-07T00:49:50.889Z,1023.82
2016-08-07T00:50:00.881Z,1023.81
2016-08-07T00:50:10.878Z,1023.78
2016-08-07T00:50:20.880Z,1023.83
2016-08-07T00:50:30.866Z,1023.79
2016-08-07T00:50:40.862Z,1023.8
2016-08-07T00:50:50.859Z,1023.78
2016-08-07T00:51:00.978Z,1023.83
2016-08-07T00:51:10.846Z,1023.84
2016-08-07T00:51:20.842Z,1023.84
2016-08-07T00:51:30.836Z,1023.82
2016-08-07T00:51:40.832Z,1023.8
2016-08-07T00:51:50.830Z,1023.85
2016-08-07T00:52:00.829Z,1023.84
2016-08-07T00:52:10.818Z,1023.84
2016-08-07T00:52:20.820Z,1023.82
2016-08-07T00:52:30.808Z,1023.84
2016-08-07T00:52:40.888Z,1023.81
2016-08-07T00:52:50.799Z,1023.8
2016-08-07T00:53:00.795Z,1023.85
2016-08-07T00:53:10.789Z,1023.81
2016-08-07T00:53:20.783Z,1023.85
2016-08-07T00:53:30.827Z,1023.82
2016-08-07T00:53:40.774Z,1023.8
2016-08-07T00:53:50.770Z,1023.82
2016-08-07T00:54:01.491Z,1023.79
2016-08-07T00:54:10.762Z,1023.81
2016-08-07T00:54:20.753Z,1023.76
2016-08-07T00:54:30.763Z,1023.74
2016-08-07T00:54:40.751Z,1023.8
2016-08-07T00:54:50.738Z,1023.79
2016-08-07T00:55:00.733Z,1023.78
2016-08-07T00:55:10.728Z,1023.8
2016-08-07T00:55:21.125Z,1023.77
2016-08-07T00:55:30.933Z,1023.75
2016-08-07T00:55:40.715Z,1023.75
2016-08-07T00:55:50.710Z,1023.79
2016-08-07T00:56:00.703Z,1023.76
2016-08-07T00:56:10.700Z,1023.77
2016-08-07T00:56:21.425Z,1023.77
2016-08-07T00:56:30.690Z,1023.73
2016-08-07T00:56:40.690Z,1023.79
2016-08-07T00:56:50.678Z,1023.73
2016-08-07T00:57:00.678Z,1023.75
2016-08-07T00:57:10.669Z,1023.72
2016-08-07T00:57:20.683Z,1023.7
2016-08-07T00:57:30.661Z,1023.76
2016-08-07T00:57:40.658Z,1023.71
2016-08-07T00:57:51.381Z,1023.76
2016-08-07T00:58:00.694Z,1023.74
2016-08-07T00:58:10.641Z,1023.74
2016-08-07T00:58:20.636Z,1023.72
2016-08-07T00:58:30.630Z,1023.75
2016-08-07T00:58:40.624Z,1023.75
2016-08-07T00:58:50.622Z,1023.74
2016-08-07T00:59:00.614Z,1023.75
2016-08-07T00:59:10.620Z,1023.71
2016-08-07T00:59:20.603Z,1023.77
2016-08-07T00:59:30.602Z,1023.73
2016-08-07T00:59:40.597Z,1023.69
2016-08-07T00:59:50.600Z,1023.76
2016-08-07T01:00:00.742Z,1023.73
2016-08-07T01:00:10.581Z,1023.73
2016-08-07T01:00:20.574Z,1023.75
2016-08-07T01:00:30.626Z,1023.7
2016-08-07T01:00:40.563Z,1023.71
2016-08-07T01:00:50.561Z,1023.7
2016-08-07T01:01:00.555Z,1023.74
2016-08-07T01:01:10.551Z,1023.68
2016-08-07T01:01:20.546Z,1023.72
2016-08-07T01:01:32.375Z,1023.71
2016-08-07T01:01:40.537Z,1023.7
2016-08-07T01:01:50.533Z,1023.67
2016-08-07T01:02:00.538Z,1023.7
2016-08-07T01:02:10.525Z,1023.67
2016-08-07T01:02:20.518Z,1023.67
2016-08-07T01:02:30.512Z,1023.68
2016-08-07T01:02:40.512Z,1023.62
2016-08-07T01:02:51.236Z,1023.62
2016-08-07T01:03:00.499Z,1023.68
2016-08-07T01:03:10.494Z,1023.62
2016-08-07T01:03:20.486Z,1023.63
2016-08-07T01:03:30.481Z,1023.67
2016-08-07T01:03:40.477Z,1023.64
2016-08-07T01:03:50.471Z,1023.66
2016-08-07T01:04:01.258Z,1023.72
2016-08-07T01:04:10.465Z,1023.67
2016-08-07T01:04:20.455Z,1023.62
2016-08-07T01:04:30.458Z,1023.63
2016-08-07T01:04:40.446Z,1023.65
2016-08-07T01:04:50.440Z,1023.61
2016-08-07T01:05:00.588Z,1023.58
2016-08-07T01:05:10.434Z,1023.61
2016-08-07T01:05:20.627Z,1023.61
2016-08-07T01:05:30.465Z,1023.59
2016-08-07T01:05:40.415Z,1023.6
2016-08-07T01:05:50.412Z,1023.56
2016-08-07T01:06:00.435Z,1023.57
2016-08-07T01:06:10.403Z,1023.6
2016-08-07T01:06:20.398Z,1023.59
2016-08-07T01:06:30.392Z,1023.6
2016-08-07T01:06:40.388Z,1023.61
2016-08-07T01:06:50.382Z,1023.61
2016-08-07T01:07:00.408Z,1023.59
2016-08-07T01:07:11.731Z,1023.59
2016-08-07T01:07:20.366Z,1023.66
2016-08-07T01:07:30.365Z,1023.65
2016-08-07T01:07:40.360Z,1023.53
2016-08-07T01:07:50.352Z,1023.62
2016-08-07T01:08:00.347Z,1023.6
2016-08-07T01:08:10.347Z,1023.57
2016-08-07T01:08:20.412Z,1023.6
2016-08-07T01:08:30.355Z,1023.58
2016-08-07T01:08:40.328Z,1023.59
2016-08-07T01:08:50.327Z,1023.62
2016-08-07T01:09:00.455Z,1023.59
2016-08-07T01:09:10.314Z,1023.6
2016-08-07T01:09:20.306Z,1023.63
2016-08-07T01:09:30.304Z,1023.6
2016-08-07T01:09:40.298Z,1023.6
2016-08-07T01:09:51.027Z,1023.68
2016-08-07T01:10:00.701Z,1023.65
2016-08-07T01:10:10.772Z,1023.62
2016-08-07T01:10:20.278Z,1023.59
2016-08-07T01:10:30.272Z,1023.62
2016-08-07T01:10:40.273Z,1023.58
2016-08-07T01:10:50.263Z,1023.55
2016-08-07T01:11:00.260Z,1023.62
2016-08-07T01:11:10.256Z,1023.6
2016-08-07T01:11:20.246Z,1023.61
2016-08-07T01:11:30.247Z,1023.6
2016-08-07T01:11:40.237Z,1023.59
2016-08-07T01:11:50.233Z,1023.61
2016-08-07T01:12:00.231Z,1023.62
2016-08-07T01:12:10.223Z,1023.59
2016-08-07T01:12:20.220Z,1023.6
2016-08-07T01:12:30.213Z,1023.59
2016-08-07T01:12:40.212Z,1023.62
2016-08-07T01:12:50.204Z,1023.58
2016-08-07T01:13:00.200Z,1023.59
2016-08-07T01:13:11.541Z,1023.6
2016-08-07T01:13:20.744Z,1023.59
2016-08-07T01:13:30.187Z,1023.61
2016-08-07T01:13:40.179Z,1023.6
2016-08-07T01:13:50.175Z,1023.59
2016-08-07T01:14:00.176Z,1023.6
2016-08-07T01:14:10.164Z,1023.61
2016-08-07T01:14:20.160Z,1023.56
2016-08-07T01:14:30.155Z,1023.55
2016-08-07T01:14:40.149Z,1023.6
2016-08-07T01:14:50.143Z,1023.6
2016-08-07T01:15:00.143Z,1023.59
2016-08-07T01:15:10.136Z,1023.59
2016-08-07T01:15:20.133Z,1023.59
2016-08-07T01:15:30.303Z,1023.61
2016-08-07T01:15:40.123Z,1023.59
2016-08-07T01:15:50.116Z,1023.61
2016-08-07T01:16:00.111Z,1023.57
2016-08-07T01:16:10.118Z,1023.59
2016-08-07T01:16:20.101Z,1023.59
2016-08-07T01:16:30.096Z,1023.57
2016-08-07T01:16:40.091Z,1023.63
2016-08-07T01:16:50.086Z,1023.62
2016-08-07T01:17:00.120Z,1023.59
2016-08-07T01:17:10.075Z,1023.61
2016-08-07T01:17:20.082Z,1023.56
2016-08-07T01:17:30.798Z,1023.58
2016-08-07T01:17:40.060Z,1023.54
2016-08-07T01:17:50.055Z,1023.58
2016-08-07T01:18:00.055Z,1023.54
2016-08-07T01:18:10.050Z,1023.6
2016-08-07T01:18:20.777Z,1023.59
2016-08-07T01:18:30.035Z,1023.59
2016-08-07T01:18:40.106Z,1023.58
2016-08-07T01:18:50.826Z,1023.57
2016-08-07T01:19:00.021Z,1023.6
2016-08-07T01:19:10.015Z,1023.58
2016-08-07T01:19:20.011Z,1023.59
2016-08-07T01:19:30.009Z,1023.61
2016-08-07T01:19:40.002Z,1023.62
2016-08-07T01:19:49.995Z,1023.57
2016-08-07T01:19:59.999Z,1023.58
2016-08-07T01:20:09.987Z,1023.58
2016-08-07T01:20:19.980Z,1023.62
2016-08-07T01:20:29.975Z,1023.61
2016-08-07T01:20:39.970Z,1023.63
2016-08-07T01:20:49.992Z,1023.59
2016-08-07T01:21:00.062Z,1023.61
2016-08-07T01:21:10.075Z,1023.64
2016-08-07T01:21:19.949Z,1023.59
2016-08-07T01:21:29.946Z,1023.64
2016-08-07T01:21:39.940Z,1023.61
2016-08-07T01:21:49.938Z,1023.62
2016-08-07T01:21:59.962Z,1023.6
2016-08-07T01:22:09.926Z,1023.61
2016-08-07T01:22:19.926Z,1023.57
2016-08-07T01:22:29.924Z,1023.59
2016-08-07T01:22:39.913Z,1023.61
2016-08-07T01:22:49.906Z,1023.6
2016-08-07T01:22:59.901Z,1023.59
2016-08-07T01:23:09.896Z,1023.56
2016-08-07T01:23:19.902Z,1023.6
2016-08-07T01:23:29.886Z,1023.66
2016-08-07T01:23:39.883Z,1023.61
2016-08-07T01:23:49.878Z,1023.58
2016-08-07T01:23:59.870Z,1023.61
2016-08-07T01:24:09.867Z,1023.53
2016-08-07T01:24:19.862Z,1023.56
2016-08-07T01:24:29.857Z,1023.55
2016-08-07T01:24:39.851Z,1023.55
2016-08-07T01:24:49.847Z,1023.56
2016-08-07T01:25:00.047Z,1023.61
2016-08-07T01:25:09.842Z,1023.65
2016-08-07T01:25:19.830Z,1023.66
2016-08-07T01:25:29.905Z,1023.62
2016-08-07T01:25:39.821Z,1023.6
2016-08-07T01:25:49.819Z,1023.63
2016-08-07T01:25:59.812Z,1023.64
2016-08-07T01:26:09.812Z,1023.69
2016-08-07T01:26:19.803Z,1023.62
2016-08-07T01:26:29.796Z,1023.64
2016-08-07T01:26:39.791Z,1023.65
2016-08-07T01:26:49.789Z,1023.66
2016-08-07T01:26:59.782Z,1023.67
2016-08-07T01:27:10.536Z,1023.65
2016-08-07T01:27:19.773Z,1023.68
2016-08-07T01:27:29.768Z,1023.68
2016-08-07T01:27:39.763Z,1023.64
2016-08-07T01:27:49.757Z,1023.65
2016-08-07T01:27:59.751Z,1023.68
2016-08-07T01:28:09.748Z,1023.68
2016-08-07T01:28:19.742Z,1023.71
2016-08-07T01:28:29.740Z,1023.69
2016-08-07T01:28:39.735Z,1023.72
2016-08-07T01:28:49.729Z,1023.71
2016-08-07T01:29:00.514Z,1023.76
2016-08-07T01:29:09.719Z,1023.71
2016-08-07T01:29:19.713Z,1023.7
2016-08-07T01:29:29.709Z,1023.72
2016-08-07T01:29:39.703Z,1023.67
2016-08-07T01:29:49.699Z,1023.75
2016-08-07T01:29:59.694Z,1023.75
2016-08-07T01:30:10.637Z,1023.73
2016-08-07T01:30:19.683Z,1023.73
2016-08-07T01:30:29.678Z,1023.69
2016-08-07T01:30:39.674Z,1023.73
2016-08-07T01:30:50.419Z,1023.69
2016-08-07T01:30:59.666Z,1023.66
2016-08-07T01:31:10.904Z,1023.7
2016-08-07T01:31:20.384Z,1023.69
2016-08-07T01:31:29.648Z,1023.68
2016-08-07T01:31:39.646Z,1023.72
2016-08-07T01:31:49.671Z,1023.68
2016-08-07T01:32:00.104Z,1023.66
2016-08-07T01:32:09.632Z,1023.72
2016-08-07T01:32:19.623Z,1023.72
2016-08-07T01:32:29.619Z,1023.74
2016-08-07T01:32:39.613Z,1023.76
2016-08-07T01:32:50.356Z,1023.65
2016-08-07T01:32:59.605Z,1023.67
2016-08-07T01:33:10.326Z,1023.69
2016-08-07T01:33:19.592Z,1023.7
2016-08-07T01:33:29.597Z,1023.72
2016-08-07T01:33:39.585Z,1023.72
2016-08-07T01:33:49.580Z,1023.71
2016-08-07T01:33:59.579Z,1023.68
2016-08-07T01:34:09.569Z,1023.71
2016-08-07T01:34:19.564Z,1023.7
2016-08-07T01:34:29.559Z,1023.74
2016-08-07T01:34:39.557Z,1023.67
2016-08-07T01:34:49.549Z,1023.72
2016-08-07T01:34:59.545Z,1023.76
2016-08-07T01:35:09.543Z,1023.71
2016-08-07T01:35:19.533Z,1023.68
2016-08-07T01:35:29.528Z,1023.73
2016-08-07T01:35:39.527Z,1023.76
2016-08-07T01:35:50.248Z,1023.72
2016-08-07T01:35:59.515Z,1023.69
2016-08-07T01:36:09.512Z,1023.7
2016-08-07T01:36:19.507Z,1023.71
2016-08-07T01:36:29.500Z,1023.76
2016-08-07T01:36:39.493Z,1023.75
2016-08-07T01:36:49.494Z,1023.75
2016-08-07T01:36:59.484Z,1023.74
2016-08-07T01:37:09.479Z,1023.76
2016-08-07T01:37:19.475Z,1023.78
2016-08-07T01:37:29.469Z,1023.76
2016-08-07T01:37:39.466Z,1023.77
2016-08-07T01:37:49.462Z,1023.79
2016-08-07T01:37:59.457Z,1023.74
2016-08-07T01:38:09.451Z,1023.76
2016-08-07T01:38:19.447Z,1023.72
2016-08-07T01:38:29.443Z,1023.78
2016-08-07T01:38:39.436Z,1023.72
2016-08-07T01:38:49.432Z,1023.75
2016-08-07T01:38:59.426Z,1023.75
2016-08-07T01:39:09.419Z,1023.78
2016-08-07T01:39:19.415Z,1023.74
2016-08-07T01:39:29.409Z,1023.74
2016-08-07T01:39:39.433Z,1023.73
2016-08-07T01:39:49.400Z,1023.74
2016-08-07T01:39:59.395Z,1023.72
2016-08-07T01:40:09.389Z,1023.75
2016-08-07T01:40:19.386Z,1023.81
2016-08-07T01:40:29.381Z,1023.77
2016-08-07T01:40:40.106Z,1023.73
2016-08-07T01:40:49.370Z,1023.74
2016-08-07T01:40:59.373Z,1023.75
2016-08-07T01:41:09.361Z,1023.77
2016-08-07T01:41:19.360Z,1023.72
2016-08-07T01:41:29.352Z,1023.73
2016-08-07T01:41:39.345Z,1023.78
2016-08-07T01:41:49.341Z,1023.72
2016-08-07T01:41:59.336Z,1023.77
2016-08-07T01:42:09.330Z,1023.75
2016-08-07T01:42:19.328Z,1023.7
2016-08-07T01:42:29.321Z,1023.68
2016-08-07T01:42:39.316Z,1023.73
2016-08-07T01:42:49.311Z,1023.7
2016-08-07T01:43:03.485Z,1023.73
2016-08-07T01:43:10.762Z,1023.74
2016-08-07T01:43:21.672Z,1023.71
2016-08-07T01:43:29.288Z,1023.75
2016-08-07T01:43:39.285Z,1023.71
2016-08-07T01:43:50.010Z,1023.69
2016-08-07T01:43:59.285Z,1023.71
2016-08-07T01:44:09.311Z,1023.72
2016-08-07T01:44:19.267Z,1023.7
2016-08-07T01:44:29.261Z,1023.7
2016-08-07T01:44:39.255Z,1023.71
2016-08-07T01:44:49.250Z,1023.7
2016-08-07T01:44:59.246Z,1023.68
2016-08-07T01:45:09.258Z,1023.69
2016-08-07T01:45:19.237Z,1023.68
2016-08-07T01:45:30.365Z,1023.66
2016-08-07T01:45:39.227Z,1023.68
2016-08-07T01:45:49.222Z,1023.68
2016-08-07T01:45:59.217Z,1023.71
2016-08-07T01:46:09.211Z,1023.66
2016-08-07T01:46:19.211Z,1023.66
2016-08-07T01:46:29.208Z,1023.62
2016-08-07T01:46:39.196Z,1023.65
2016-08-07T01:46:49.218Z,1023.66
2016-08-07T01:46:59.186Z,1023.71
2016-08-07T01:47:09.180Z,1023.64
2016-08-07T01:47:19.178Z,1023.64
2016-08-07T01:47:29.170Z,1023.71
2016-08-07T01:47:39.180Z,1023.67
2016-08-07T01:47:49.161Z,1023.67
2016-08-07T01:47:59.156Z,1023.67
2016-08-07T01:48:09.152Z,1023.68
2016-08-07T01:48:19.875Z,1023.68
2016-08-07T01:48:29.144Z,1023.71
2016-08-07T01:48:39.138Z,1023.65
2016-08-07T01:48:51.492Z,1023.66
2016-08-07T01:48:59.126Z,1023.71
2016-08-07T01:49:09.120Z,1023.67
2016-08-07T01:49:19.118Z,1023.68
2016-08-07T01:49:29.111Z,1023.68
2016-08-07T01:49:39.105Z,1023.71
2016-08-07T01:49:49.102Z,1023.66
2016-08-07T01:49:59.095Z,1023.66
2016-08-07T01:50:09.098Z,1023.67
2016-08-07T01:50:19.178Z,1023.71
2016-08-07T01:50:29.082Z,1023.7
2016-08-07T01:50:39.078Z,1023.7
2016-08-07T01:50:49.074Z,1023.66
2016-08-07T01:50:59.068Z,1023.68
2016-08-07T01:51:09.061Z,1023.73
2016-08-07T01:51:19.055Z,1023.72
2016-08-07T01:51:29.057Z,1023.66
2016-08-07T01:51:39.048Z,1023.73
2016-08-07T01:51:49.047Z,1023.7
2016-08-07T01:51:59.038Z,1023.69
2016-08-07T01:52:09.031Z,1023.7
2016-08-07T01:52:19.026Z,1023.7
2016-08-07T01:52:29.022Z,1023.73
2016-08-07T01:52:39.017Z,1023.75
2016-08-07T01:52:49.011Z,1023.69
2016-08-07T01:52:59.008Z,1023.68
2016-08-07T01:53:09.000Z,1023.73
2016-08-07T01:53:19.726Z,1023.72
2016-08-07T01:53:28.995Z,1023.65
2016-08-07T01:53:38.989Z,1023.72
2016-08-07T01:53:48.984Z,1023.68
2016-08-07T01:53:58.974Z,1023.7
2016-08-07T01:54:08.974Z,1023.72
2016-08-07T01:54:18.966Z,1023.74
2016-08-07T01:54:28.964Z,1023.66
2016-08-07T01:54:38.955Z,1023.7
2016-08-07T01:54:48.952Z,1023.66
2016-08-07T01:54:58.946Z,1023.7
2016-08-07T01:55:08.941Z,1023.75
2016-08-07T01:55:18.994Z,1023.71
2016-08-07T01:55:28.933Z,1023.74
2016-08-07T01:55:38.928Z,1023.76
2016-08-07T01:55:48.923Z,1023.73
2016-08-07T01:55:58.918Z,1023.71
2016-08-07T01:56:08.912Z,1023.7
2016-08-07T01:56:18.909Z,1023.71
2016-08-07T01:56:28.903Z,1023.67
2016-08-07T01:56:38.919Z,1023.71
2016-08-07T01:56:48.892Z,1023.74
2016-08-07T01:56:58.889Z,1023.74
2016-08-07T01:57:08.882Z,1023.76
2016-08-07T01:57:18.877Z,1023.77
2016-08-07T01:57:28.873Z,1023.75
2016-08-07T01:57:38.868Z,1023.79
2016-08-07T01:57:48.864Z,1023.75
2016-08-07T01:57:58.857Z,1023.75
2016-08-07T01:58:08.852Z,1023.77
2016-08-07T01:58:18.848Z,1023.75
2016-08-07T01:58:28.852Z,1023.72
2016-08-07T01:58:38.837Z,1023.76
2016-08-07T01:58:48.833Z,1023.78
2016-08-07T01:58:58.828Z,1023.74
2016-08-07T01:59:08.823Z,1023.78
2016-08-07T01:59:18.818Z,1023.77
2016-08-07T01:59:28.811Z,1023.78
2016-08-07T01:59:38.810Z,1023.76
2016-08-07T01:59:48.804Z,1023.79
2016-08-07T01:59:58.798Z,1023.75
2016-08-07T02:00:08.999Z,1023.76
2016-08-07T02:00:18.789Z,1023.74
2016-08-07T02:00:28.783Z,1023.76
2016-08-07T02:00:38.777Z,1023.74
2016-08-07T02:00:48.774Z,1023.77
2016-08-07T02:00:58.768Z,1023.74
2016-08-07T02:01:08.764Z,1023.75
2016-08-07T02:01:18.758Z,1023.71